Aérodrome :
LOGIN :

S'inscrire | Disclaimer

   EN    FR    IT 

 










Légende :    VFR   VFR Marginal   IFR   IFR Intensif   IFR Très Intensif
Visi : 
Plafond : 
>= 8 km
>= 3000ft
5 à 8 km
1000 à 3000 ft
1500m à 5 km
500 à 1000 ft
800 à 1500m
200 à 500 ft
< 800m
< 200 ft
Symboles :   Orages  Brouillard  Fortes neiges  Fortes précipitations  Vent > 20 kt
SIGMETs :   Divers  Orages  Givrage  Turbulence  Onde Orograph.  Cendres Volcan.






- Altitude de l'aérodrome : 299 ft
- Code IATA : EDM


LFRI - La Roche Sur Yon - Les Ajoncs

DERNIER METAR :
  • 272100Z AUTO 06003KT CAVOK 06/03 Q1019 NOSIG

METARs EXPIRÉS :
  • 272030Z AUTO 00000KT 9999 FEW039 BKN240 06/02 Q1018 NOSIG
  • 272000Z AUTO 00000KT CAVOK 06/02 Q1018 NOSIG
  • 271930Z AUTO 00000KT CAVOK 07/03 Q1018 NOSIG
  • 271900Z AUTO 30002KT CAVOK 06/03 Q1017 NOSIG
  • 271830Z AUTO 33005KT CAVOK 07/03 Q1016 NOSIG

TAF TAF LFRI
Valide du 27 à 18h jusqu'au 28 à 18h UTC


271700Z 2718/2818 33006KT 9999 SCT040
BECMG 2804/2806 16010KT
TEMPO 2804/2806 4500 -RA
BECMG 2805/2807 BKN004 OVC009
TEMPO 2808/2814 2500 -DZRA BKN002
BECMG 2810/2812 22012KT
BECMG 2814/2816 BKN006 OVC015



MET'MAP, la Météo Aéronautique d'un coup d'oeil ! - Copyright ORBIFLY Décembre 2007 - Disclaimer

ORBIFLY MET'MAP TEAM :

Programmation & Développement : Alexandra Zaïnal
Sur une idée originale de : Baudouin d'Aumeries
Assistance à la programmation : Marc-Olivier Méhu
Soutien technique & logistique : Manuel Goepfert

Contact : metmap@orbifly.com




SOURCES & CREDITS :

   NOAA